« Back
NWS Peachtree City, Ga » Text Product » MCN Terminal Aerodrome Forecast


Printer-friendly Version
Current Version              Previous Versions:   1  2  3  4  5  6  7  8  9  

Terminal Aerodrome Forecast

180
FTUS42 KFFC 191120
TAFMCN
TAF
KMCN 191120Z 1912/2012 16006KT 6SM -SHRA BR OVC025
      TEMPO 1912/1916 4SM -RA BR OVC008
     FM191900 19008G16KT 4SM -TSRA BKN015CB OVC025
     FM192300 21008G16KT P6SM VCSH BKN015
     FM200000 21005KT P6SM BKN030
     FM200400 21005KT 4SM BR OVC004=



USA.gov is the U.S. government's official web portal to all federal, state and local government web resources and services.